Daihatsumaru — JD2764 — position and weather

sailwx.info

Track history (hours):
 
Tides and Currents Weather Stations Pressure Air Temp Water Temp Dewpoint Dewpoint Depression Visibility Wind Speed Wind Dir Waves Ship Positions

Daihatsumaru

Last reported at 2014-Sep-17 19:31 UTC. Time now 2014-Sep-17 19:37 UTC.
Position N 34°40' E 135°21'.

Length 106 m; draft 4.5 m.

Type: Cargo ship. MMSI: 431000701.

Date/timePositionNaut miles runAvg speedWind from/ knotsBaromVisibWave heightAir tempDewpointWater temp
2014-Sep-17 19:31N 34°40' E 135°21'1 1.5
2014-Sep-17 18:33N 34°39' E 135°19'1413.7
2014-Sep-17 17:34N 34°35' E 135°03'1413.3
2014-Sep-17 16:29N 34°32' E 134°47'6 0.2
2014-Sep-16 04:10N 34°35' E 134°52'1015.5
2014-Sep-16 03:33N 34°36' E 135°04'1514.6
2014-Sep-16 02:33N 34°40' E 135°21'3 2.5
2014-Sep-16 01:33N 34°41' E 135°23'0 0.0
2014-Sep-16 00:33N 34°41' E 135°23'0 0.0
2014-Sep-15 23:33N 34°41' E 135°23'2 1.9
2014-Sep-15 22:33N 34°40' E 135°21'1 0.5
2014-Sep-15 21:32N 34°40' E 135°21'0 0.0
2014-Sep-15 20:26N 34°40' E 135°21'5 6.2
2014-Sep-15 19:33N 34°36' E 135°16'1414.0
2014-Sep-15 18:33N 34°37' E 134°59'  
2014-Sep-13 05:04N 34°35' E 134°53'714.4
2014-Sep-13 04:33N 34°37' E 135°02'1414.2
2014-Sep-13 03:33N 34°39' E 135°19'5 4.7
2014-Sep-13 02:34N 34°41' E 135°23'0 0.0
2014-Sep-13 01:34N 34°41' E 135°23'0 0.0
2014-Sep-13 00:33N 34°41' E 135°23'0 0.0
2014-Sep-12 23:33N 34°41' E 135°23'2 2.0
2014-Sep-12 22:32N 34°40' E 135°21'0 0.4
2014-Sep-12 21:27N 34°40' E 135°21'0 0.0
2014-Sep-12 20:33N 34°40' E 135°21'0 0.0
2014-Sep-12 19:27N 34°40' E 135°21'8 8.9
2014-Sep-12 18:33N 34°35' E 135°13'1515.2
2014-Sep-12 17:33N 34°35' E 134°55'1 0.0
2014-Sep-11 05:22N 34°36' E 134°55'1011.8
2014-Sep-11 04:34N 34°36' E 135°07'1514.4
2014-Sep-11 03:33N 34°41' E 135°23'0 0.1
2014-Sep-11 02:33N 34°41' E 135°23'0 0.0
2014-Sep-11 01:33N 34°41' E 135°23'0 0.0
2014-Sep-11 00:33N 34°41' E 135°23'0 0.0
2014-Sep-10 23:33N 34°41' E 135°23'0 0.1
2014-Sep-10 22:33N 34°41' E 135°23'3 3.2
2014-Sep-10 21:33N 34°40' E 135°20'0 0.0
2014-Sep-10 20:27N 34°40' E 135°20'0 0.0
2014-Sep-10 19:33N 34°40' E 135°20'0 0.1
2014-Sep-10 18:33N 34°40' E 135°20'1313.4
2014-Sep-10 17:33N 34°35' E 135°05'2 0.0
2014-Sep-09 03:33N 34°36' E 135°04'1514.5
2014-Sep-09 02:33N 34°40' E 135°21'3 2.6
2014-Sep-09 01:33N 34°41' E 135°23'0 0.0
2014-Sep-09 00:33N 34°41' E 135°23'0 0.0
2014-Sep-08 23:33N 34°41' E 135°23'2 2.1
2014-Sep-08 22:33N 34°40' E 135°21'0 0.2
2014-Sep-08 21:23N 34°40' E 135°21'0 0.0
2014-Sep-08 20:29N 34°40' E 135°21'0 0.0
2014-Sep-08 19:29N 34°40' E 135°21'1 0.6
2014-Sep-08 18:33N 34°40' E 135°20'1514.6
2014-Sep-08 17:33N 34°35' E 135°03'  
Track history (hours):
 
Tides and Currents Weather Stations Pressure Air Temp Water Temp Dewpoint Dewpoint Depression Visibility Wind Speed Wind Dir Waves Ship Positions

Daihatsumaru

Last reported at 2014-Sep-17 19:31 UTC. Time now 2014-Sep-17 19:37 UTC.
Position N 34°40' E 135°21'.

Length 106 m; draft 4.5 m.

Type: Cargo ship. MMSI: 431000701.

Date/timePositionNaut miles runAvg speedWind from/ knotsBaromVisibWave heightAir tempDewpointWater temp
2014-Sep-17 19:31N 34°40' E 135°21'1 1.5
2014-Sep-17 18:33N 34°39' E 135°19'1413.7
2014-Sep-17 17:34N 34°35' E 135°03'1413.3
2014-Sep-17 16:29N 34°32' E 134°47'6 0.2
2014-Sep-16 04:10N 34°35' E 134°52'1015.5
2014-Sep-16 03:33N 34°36' E 135°04'1514.6
2014-Sep-16 02:33N 34°40' E 135°21'3 2.5
2014-Sep-16 01:33N 34°41' E 135°23'0 0.0
2014-Sep-16 00:33N 34°41' E 135°23'0 0.0
2014-Sep-15 23:33N 34°41' E 135°23'2 1.9
2014-Sep-15 22:33N 34°40' E 135°21'1 0.5
2014-Sep-15 21:32N 34°40' E 135°21'0 0.0
2014-Sep-15 20:26N 34°40' E 135°21'5 6.2
2014-Sep-15 19:33N 34°36' E 135°16'1414.0
2014-Sep-15 18:33N 34°37' E 134°59'  
2014-Sep-13 05:04N 34°35' E 134°53'714.4
2014-Sep-13 04:33N 34°37' E 135°02'1414.2
2014-Sep-13 03:33N 34°39' E 135°19'5 4.7
2014-Sep-13 02:34N 34°41' E 135°23'0 0.0
2014-Sep-13 01:34N 34°41' E 135°23'0 0.0
2014-Sep-13 00:33N 34°41' E 135°23'0 0.0
2014-Sep-12 23:33N 34°41' E 135°23'2 2.0
2014-Sep-12 22:32N 34°40' E 135°21'0 0.4
2014-Sep-12 21:27N 34°40' E 135°21'0 0.0
2014-Sep-12 20:33N 34°40' E 135°21'0 0.0
2014-Sep-12 19:27N 34°40' E 135°21'8 8.9
2014-Sep-12 18:33N 34°35' E 135°13'1515.2
2014-Sep-12 17:33N 34°35' E 134°55'1 0.0
2014-Sep-11 05:22N 34°36' E 134°55'1011.8
2014-Sep-11 04:34N 34°36' E 135°07'1514.4
2014-Sep-11 03:33N 34°41' E 135°23'0 0.1
2014-Sep-11 02:33N 34°41' E 135°23'0 0.0
2014-Sep-11 01:33N 34°41' E 135°23'0 0.0
2014-Sep-11 00:33N 34°41' E 135°23'0 0.0
2014-Sep-10 23:33N 34°41' E 135°23'0 0.1
2014-Sep-10 22:33N 34°41' E 135°23'3 3.2
2014-Sep-10 21:33N 34°40' E 135°20'0 0.0
2014-Sep-10 20:27N 34°40' E 135°20'0 0.0
2014-Sep-10 19:33N 34°40' E 135°20'0 0.1
2014-Sep-10 18:33N 34°40' E 135°20'1313.4
2014-Sep-10 17:33N 34°35' E 135°05'2 0.0
2014-Sep-09 03:33N 34°36' E 135°04'1514.5
2014-Sep-09 02:33N 34°40' E 135°21'3 2.6
2014-Sep-09 01:33N 34°41' E 135°23'0 0.0
2014-Sep-09 00:33N 34°41' E 135°23'0 0.0
2014-Sep-08 23:33N 34°41' E 135°23'2 2.1
2014-Sep-08 22:33N 34°40' E 135°21'0 0.2
2014-Sep-08 21:23N 34°40' E 135°21'0 0.0
2014-Sep-08 20:29N 34°40' E 135°21'0 0.0
2014-Sep-08 19:29N 34°40' E 135°21'1 0.6
2014-Sep-08 18:33N 34°40' E 135°20'1514.6
2014-Sep-08 17:33N 34°35' E 135°03'  

Dump ship's entire track history